createdAt,value
2022-12-17T00:02:27.801Z,100874.97
2022-12-17T00:05:13.931Z,100858.94
2022-12-17T00:07:59.645Z,100865.63
2022-12-17T00:10:45.285Z,100861.34
2022-12-17T00:13:41.504Z,100857.31
2022-12-17T00:16:27.343Z,100839.16
2022-12-17T00:19:13.056Z,100839.16
2022-12-17T00:21:58.796Z,100840.69
2022-12-17T00:24:44.534Z,100839.06
2022-12-17T00:27:30.413Z,100838.91
2022-12-17T00:30:16.013Z,100828.00
2022-12-17T00:33:01.577Z,100825.22
2022-12-17T00:35:47.357Z,100814.31
2022-12-17T00:38:34.889Z,100800.00
2022-12-17T00:41:20.943Z,100796.00
2022-12-17T00:44:06.483Z,100788.94
2022-12-17T00:46:52.064Z,100787.97
2022-12-17T00:49:37.693Z,100766.13
2022-12-17T00:52:23.425Z,100774.69
2022-12-17T00:55:09.087Z,100779.84
2022-12-17T00:57:54.916Z,100783.66
2022-12-17T01:00:41.702Z,100782.03
2022-12-17T01:03:30.255Z,100784.53
2022-12-17T01:06:19.965Z,100778.03
2022-12-17T01:09:05.777Z,100778.63
2022-12-17T01:11:51.672Z,100778.63
2022-12-17T01:14:37.668Z,100771.84
2022-12-17T01:17:23.425Z,100784.69
2022-12-17T01:20:08.899Z,100782.03
2022-12-17T01:22:54.177Z,100784.91
2022-12-17T01:25:42.445Z,100773.69
2022-12-17T01:28:28.160Z,100772.81
2022-12-17T01:31:16.242Z,100777.88
2022-12-17T01:34:01.606Z,100778.34
2022-12-17T01:36:47.146Z,100775.72
2022-12-17T01:39:32.896Z,100766.19
2022-12-17T01:42:18.563Z,100768.00
2022-12-17T01:45:08.150Z,100760.41
2022-12-17T01:47:58.946Z,100747.28
2022-12-17T01:50:48.887Z,100739.75
2022-12-17T01:53:38.032Z,100732.13
2022-12-17T01:56:24.987Z,100740.66
2022-12-17T01:59:11.411Z,100734.66
2022-12-17T02:01:57.879Z,100735.75
2022-12-17T02:04:43.940Z,100741.63
2022-12-17T02:07:48.272Z,100743.34
2022-12-17T02:10:51.518Z,100730.41
2022-12-17T02:13:41.877Z,100721.69
2022-12-17T02:16:54.055Z,100727.56
2022-12-17T02:19:48.851Z,100724.34
2022-12-17T02:22:57.758Z,100715.75
2022-12-17T02:25:55.760Z,100710.50
2022-12-17T02:28:46.471Z,100711.00
2022-12-17T02:31:34.024Z,100696.94
2022-12-17T02:34:20.112Z,100708.06
2022-12-17T02:37:08.222Z,100685.84
2022-12-17T02:39:55.945Z,100681.69
2022-12-17T02:42:44.329Z,100671.72
2022-12-17T02:45:31.392Z,100680.97
2022-12-17T02:48:19.353Z,100662.41
2022-12-17T02:51:05.396Z,100667.47
2022-12-17T02:53:51.988Z,100666.19
2022-12-17T02:56:37.431Z,100657.63
2022-12-17T02:59:22.974Z,100655.25
2022-12-17T03:02:08.862Z,100652.91
2022-12-17T03:04:54.632Z,100645.31
2022-12-17T03:07:40.516Z,100648.72
2022-12-17T03:10:27.667Z,100646.19
2022-12-17T03:13:13.241Z,100641.66
2022-12-17T03:15:59.009Z,100644.47
2022-12-17T03:18:44.591Z,100644.50
2022-12-17T03:21:30.465Z,100644.19
2022-12-17T03:24:16.102Z,100613.63
2022-12-17T03:27:01.709Z,100626.19
2022-12-17T03:29:47.198Z,100614.03
2022-12-17T03:32:32.523Z,100599.53
2022-12-17T03:35:18.200Z,100598.09
2022-12-17T03:38:03.626Z,100585.28
2022-12-17T03:40:49.253Z,100600.03
2022-12-17T03:43:35.245Z,100594.66
2022-12-17T03:46:21.047Z,100595.19
2022-12-17T03:49:06.410Z,100592.38
2022-12-17T03:51:52.049Z,100595.41
2022-12-17T03:54:37.704Z,100599.69
2022-12-17T03:57:23.302Z,100597.06
2022-12-17T04:00:08.952Z,100587.94
2022-12-17T04:03:00.514Z,100594.81
2022-12-17T04:05:46.083Z,100577.69
2022-12-17T04:08:31.768Z,100596.44
2022-12-17T04:11:17.688Z,100593.00
2022-12-17T04:14:04.856Z,100590.41
2022-12-17T04:16:50.499Z,100592.97
2022-12-17T04:19:36.380Z,100594.66
2022-12-17T04:22:22.103Z,100600.19
2022-12-17T04:25:07.470Z,100586.78
2022-12-17T04:27:53.061Z,100582.25
2022-12-17T04:30:38.794Z,100571.84
2022-12-17T04:33:24.768Z,100560.63
2022-12-17T04:36:10.226Z,100545.63
2022-12-17T04:38:55.894Z,100553.00
2022-12-17T04:41:41.470Z,100556.69
2022-12-17T04:44:27.144Z,100550.53
2022-12-17T04:47:13.171Z,100559.56
2022-12-17T04:49:59.061Z,100560.41
2022-12-17T04:52:44.788Z,100555.34
2022-12-17T04:55:30.283Z,100560.41
2022-12-17T04:58:24.181Z,100551.22
2022-12-17T05:01:13.903Z,100560.72
2022-12-17T05:03:59.303Z,100541.06
2022-12-17T05:06:44.824Z,100542.56
2022-12-17T05:09:30.545Z,100514.88
2022-12-17T05:12:16.181Z,100519.84
2022-12-17T05:15:01.881Z,100530.66
2022-12-17T05:17:49.006Z,100536.47
2022-12-17T05:20:34.808Z,100544.59
2022-12-17T05:23:27.691Z,100541.03
2022-12-17T05:26:24.191Z,100542.75
2022-12-17T05:29:15.661Z,100553.00
2022-12-17T05:32:01.606Z,100547.03
2022-12-17T05:34:47.391Z,100533.22
2022-12-17T05:37:32.707Z,100525.53
2022-12-17T05:40:18.339Z,100519.31
2022-12-17T05:43:17.183Z,100528.78
2022-12-17T05:46:03.249Z,100528.16
2022-12-17T05:48:50.277Z,100532.22
2022-12-17T05:51:38.872Z,100531.47
2022-12-17T05:54:25.469Z,100525.69
2022-12-17T05:57:11.640Z,100529.66
2022-12-17T05:59:57.310Z,100537.44
2022-12-17T06:02:59.523Z,100527.38
2022-12-17T06:05:45.323Z,100527.66
2022-12-17T06:08:30.952Z,100532.38
2022-12-17T06:11:18.705Z,100522.34
2022-12-17T06:14:04.265Z,100512.00
2022-12-17T06:16:49.904Z,100510.25
2022-12-17T06:19:35.552Z,100511.13
2022-12-17T06:22:20.927Z,100514.41
2022-12-17T06:25:06.827Z,100510.06
2022-12-17T06:27:52.580Z,100513.59
2022-12-17T06:30:38.216Z,100515.34
2022-12-17T06:33:29.539Z,100510.47
2022-12-17T06:36:22.136Z,100515.97
2022-12-17T06:39:08.919Z,100526.03
2022-12-17T06:42:00.552Z,100520.88
2022-12-17T06:44:49.711Z,100505.31
2022-12-17T06:47:35.252Z,100487.66
2022-12-17T06:50:20.793Z,100496.75
2022-12-17T06:53:06.348Z,100467.09
2022-12-17T06:55:51.965Z,100479.59
2022-12-17T06:58:37.545Z,100483.66
2022-12-17T07:01:23.235Z,100484.91
2022-12-17T07:04:08.768Z,100481.38
2022-12-17T07:06:55.679Z,100483.03
2022-12-17T07:09:41.094Z,100478.72
2022-12-17T07:12:26.836Z,100480.41
2022-12-17T07:15:12.168Z,100480.41
2022-12-17T07:17:57.892Z,100469.38
2022-12-17T07:20:43.474Z,100468.38
2022-12-17T07:23:29.214Z,100463.25
2022-12-17T07:26:15.931Z,100454.94
2022-12-17T07:29:01.593Z,100425.56
2022-12-17T07:31:47.067Z,100444.72
2022-12-17T07:34:32.600Z,100438.88
2022-12-17T07:37:20.669Z,100432.81
2022-12-17T07:40:06.487Z,100429.16
2022-12-17T07:42:53.845Z,100409.69
2022-12-17T07:45:39.478Z,100424.22
2022-12-17T07:48:24.986Z,100431.31
2022-12-17T07:51:11.122Z,100435.16
2022-12-17T07:53:56.523Z,100416.41
2022-12-17T07:56:42.202Z,100423.94
2022-12-17T07:59:27.838Z,100396.13
2022-12-17T08:02:15.184Z,100414.94
2022-12-17T08:05:00.738Z,100422.44
2022-12-17T08:07:46.310Z,100408.38
2022-12-17T08:10:31.831Z,100407.25
2022-12-17T08:13:19.480Z,100399.06
2022-12-17T08:16:05.791Z,100406.75
2022-12-17T08:18:51.352Z,100400.94
2022-12-17T08:21:37.005Z,100390.28
2022-12-17T08:24:22.790Z,100385.75
2022-12-17T08:27:08.272Z,100373.44
2022-12-17T08:29:53.738Z,100383.88
2022-12-17T08:32:39.458Z,100389.91
2022-12-17T08:35:25.118Z,100382.88
2022-12-17T08:38:10.891Z,100397.81
2022-12-17T08:40:56.328Z,100377.09
2022-12-17T08:43:41.992Z,100364.75
2022-12-17T08:46:27.755Z,100363.84
2022-12-17T08:49:13.157Z,100369.31
2022-12-17T08:51:58.916Z,100358.69
2022-12-17T08:54:44.577Z,100368.59
2022-12-17T08:57:32.253Z,100369.09
2022-12-17T09:00:18.747Z,100355.81
2022-12-17T09:03:04.506Z,100351.81
2022-12-17T09:05:51.849Z,100349.81
2022-12-17T09:08:37.757Z,100350.59
2022-12-17T09:11:23.210Z,100356.03
2022-12-17T09:14:16.389Z,100339.59
2022-12-17T09:17:03.611Z,100329.06
2022-12-17T09:19:48.939Z,100355.41
2022-12-17T09:22:54.524Z,100358.78
2022-12-17T09:25:39.971Z,100360.69
2022-12-17T09:28:25.408Z,100359.97
2022-12-17T09:31:11.139Z,100344.38
2022-12-17T09:33:56.683Z,100335.25
2022-12-17T09:36:46.507Z,100334.66
2022-12-17T09:39:35.108Z,100326.72
2022-12-17T09:42:49.769Z,100330.28
2022-12-17T09:45:42.141Z,100338.25
2022-12-17T09:48:54.322Z,100335.22
2022-12-17T09:51:45.609Z,100333.06
2022-12-17T09:54:45.027Z,100323.94
2022-12-17T09:57:34.472Z,100306.88
2022-12-17T10:00:25.888Z,100313.34
2022-12-17T10:03:11.490Z,100315.22
2022-12-17T10:05:59.591Z,100314.22
2022-12-17T10:08:47.017Z,100303.31
2022-12-17T10:11:49.198Z,100299.22
2022-12-17T10:14:40.397Z,100307.09
2022-12-17T10:17:38.822Z,100301.84
2022-12-17T10:20:43.286Z,100300.47
2022-12-17T10:23:29.004Z,100307.22
2022-12-17T10:26:15.735Z,100309.00
2022-12-17T10:29:01.404Z,100311.28
2022-12-17T10:31:48.941Z,100312.13
2022-12-17T10:34:36.153Z,100323.22
2022-12-17T10:37:22.558Z,100316.19
2022-12-17T10:40:20.461Z,100306.69
2022-12-17T10:43:05.843Z,100309.97
2022-12-17T10:45:53.838Z,100306.66
2022-12-17T10:48:45.256Z,100306.75
2022-12-17T10:51:52.867Z,100306.41
2022-12-17T10:54:49.330Z,100288.22
2022-12-17T10:57:56.728Z,100274.06
2022-12-17T11:00:49.422Z,100273.50
2022-12-17T11:04:06.912Z,100262.13
2022-12-17T11:06:56.007Z,100267.50
2022-12-17T11:09:41.482Z,100271.00
2022-12-17T11:12:31.172Z,100276.19
2022-12-17T11:15:22.996Z,100265.28
2022-12-17T11:18:11.854Z,100263.38
2022-12-17T11:21:09.769Z,100255.91
2022-12-17T11:24:00.146Z,100268.25
2022-12-17T11:26:49.254Z,100266.69
2022-12-17T11:29:34.822Z,100249.13
2022-12-17T11:32:52.631Z,100259.03
2022-12-17T11:35:48.843Z,100261.72
2022-12-17T11:38:45.198Z,100264.69
2022-12-17T11:42:12.208Z,100266.28
2022-12-17T11:45:16.674Z,100258.56
2022-12-17T11:48:14.220Z,100261.16
2022-12-17T11:51:16.311Z,100265.09
2022-12-17T11:54:45.433Z,100260.09
2022-12-17T11:57:33.857Z,100257.81
2022-12-17T12:00:36.268Z,100251.75
2022-12-17T12:03:43.530Z,100259.25
2022-12-17T12:07:01.058Z,100264.44
2022-12-17T12:10:05.044Z,100267.63
2022-12-17T12:13:14.748Z,100261.38
2022-12-17T12:16:43.903Z,100264.19
2022-12-17T12:19:40.243Z,100251.00
2022-12-17T12:22:56.912Z,100245.75
2022-12-17T12:25:53.222Z,100250.06
2022-12-17T12:28:50.967Z,100254.31
2022-12-17T12:31:53.524Z,100249.69
2022-12-17T12:34:46.004Z,100241.50
2022-12-17T12:37:34.181Z,100225.13
2022-12-17T12:40:31.737Z,100235.19
2022-12-17T12:43:39.231Z,100239.31
2022-12-17T12:46:50.137Z,100248.09
2022-12-17T12:49:47.472Z,100261.72
2022-12-17T12:52:39.482Z,100248.78
2022-12-17T12:55:25.529Z,100245.91
2022-12-17T12:58:23.531Z,100247.78
2022-12-17T13:01:09.196Z,100245.91
2022-12-17T13:04:04.008Z,100247.66
2022-12-17T13:06:46.188Z,100244.31
2022-12-17T13:09:16.180Z,100229.53
2022-12-17T13:11:48.534Z,100227.25
2022-12-17T13:14:20.553Z,100228.66
2022-12-17T13:16:47.405Z,100243.25
2022-12-17T13:19:40.253Z,100238.22
2022-12-17T13:22:10.217Z,100239.56
2022-12-17T13:24:37.861Z,100249.34
2022-12-17T13:27:05.314Z,100247.66
2022-12-17T13:29:34.993Z,100245.41
2022-12-17T13:32:02.947Z,100252.06
2022-12-17T13:34:36.009Z,100254.03
2022-12-17T13:37:40.222Z,100241.72
2022-12-17T13:40:31.961Z,100230.81
2022-12-17T13:42:59.135Z,100227.16
2022-12-17T13:45:27.234Z,100225.00
2022-12-17T13:47:59.326Z,100216.19
2022-12-17T13:50:36.831Z,100210.59
2022-12-17T13:53:13.101Z,100200.84
2022-12-17T13:55:40.752Z,100208.84
2022-12-17T13:58:21.667Z,100213.31
2022-12-17T14:00:48.749Z,100190.56
2022-12-17T14:03:32.358Z,100191.88
2022-12-17T14:06:11.028Z,100179.84
2022-12-17T14:08:38.770Z,100179.28
2022-12-17T14:11:24.775Z,100177.81
2022-12-17T14:13:52.132Z,100191.94
2022-12-17T14:16:21.291Z,100190.06
2022-12-17T14:18:57.124Z,100199.56
2022-12-17T14:21:27.160Z,100198.81
2022-12-17T14:23:56.601Z,100187.31
2022-12-17T14:26:24.868Z,100201.19
2022-12-17T14:28:55.049Z,100197.41
2022-12-17T14:31:27.222Z,100186.47
2022-12-17T14:34:11.876Z,100182.06
2022-12-17T14:36:41.170Z,100191.41
2022-12-17T14:39:26.706Z,100194.78
2022-12-17T14:42:35.280Z,100178.00
2022-12-17T14:45:23.970Z,100187.31
2022-12-17T14:48:15.573Z,100183.78
2022-12-17T14:50:42.610Z,100188.91
2022-12-17T14:53:27.981Z,100188.31
2022-12-17T14:55:57.442Z,100193.31
2022-12-17T14:58:28.226Z,100188.13
2022-12-17T15:01:12.826Z,100178.81
2022-12-17T15:03:46.800Z,100169.34
2022-12-17T15:06:18.413Z,100167.63
2022-12-17T15:08:47.848Z,100153.03
2022-12-17T15:11:20.350Z,100131.06
2022-12-17T15:13:51.565Z,100111.78
2022-12-17T15:16:23.560Z,100132.75
2022-12-17T15:18:50.659Z,100134.38
2022-12-17T15:21:18.886Z,100124.19
2022-12-17T15:23:46.869Z,100114.81
2022-12-17T15:26:15.349Z,100109.84
2022-12-17T15:28:43.014Z,100089.91
2022-12-17T15:31:12.611Z,100098.38
2022-12-17T15:33:40.418Z,100123.72
2022-12-17T15:36:07.889Z,100132.47
2022-12-17T15:38:35.313Z,100135.16
2022-12-17T15:41:26.708Z,100130.44
2022-12-17T15:43:53.769Z,100117.16
2022-12-17T15:46:20.787Z,100123.41
2022-12-17T15:48:50.441Z,100108.16
2022-12-17T15:51:19.914Z,100112.00
2022-12-17T15:53:48.131Z,100113.84
2022-12-17T15:56:24.725Z,100123.47
2022-12-17T15:58:51.787Z,100141.38
2022-12-17T16:01:19.926Z,100169.53
2022-12-17T16:03:47.221Z,100159.50
2022-12-17T16:06:14.330Z,100133.84
2022-12-17T16:08:41.309Z,100156.69
2022-12-17T16:11:09.954Z,100140.16
2022-12-17T16:13:37.865Z,100124.66
2022-12-17T16:16:06.813Z,100147.38
2022-12-17T16:18:35.479Z,100153.41
2022-12-17T16:21:03.618Z,100103.25
2022-12-17T16:23:30.852Z,100114.03
2022-12-17T16:26:03.093Z,100123.13
2022-12-17T16:28:31.085Z,100109.63
2022-12-17T16:31:09.706Z,100117.88
2022-12-17T16:33:39.484Z,100122.03
2022-12-17T16:36:08.034Z,100122.63
2022-12-17T16:38:35.425Z,100118.69
2022-12-17T16:41:03.763Z,100123.25
2022-12-17T16:43:34.277Z,100106.88
2022-12-17T16:46:02.357Z,100113.00
2022-12-17T16:48:38.611Z,100110.25
2022-12-17T16:51:19.882Z,100113.56
2022-12-17T16:53:51.066Z,100126.09
2022-12-17T16:56:20.948Z,100124.31
2022-12-17T16:58:48.321Z,100124.00
2022-12-17T17:01:23.135Z,100097.22
2022-12-17T17:03:50.606Z,100119.06
2022-12-17T17:06:19.001Z,100114.03
2022-12-17T17:08:45.945Z,100101.97
2022-12-17T17:11:24.452Z,100096.16
2022-12-17T17:13:54.071Z,100017.56
2022-12-17T17:16:23.969Z,100083.50
2022-12-17T17:18:52.281Z,100078.09
2022-12-17T17:21:19.149Z,100067.06
2022-12-17T17:24:20.394Z,100061.69
2022-12-17T17:26:49.225Z,100061.75
2022-12-17T17:29:16.313Z,100043.75
2022-12-17T17:34:30.405Z,100037.56
2022-12-17T17:36:57.372Z,100042.47
2022-12-17T17:39:24.374Z,100039.28
2022-12-17T17:41:51.898Z,100032.75
2022-12-17T17:44:18.965Z,100045.63
2022-12-17T17:46:45.889Z,100037.81
2022-12-17T17:49:12.985Z,100039.97
2022-12-17T17:54:29.657Z,100024.41
2022-12-17T17:56:56.612Z,100022.69
2022-12-17T17:59:30.896Z,100012.19
2022-12-17T18:01:59.968Z,100008.78
2022-12-17T18:04:27.134Z,100010.66
2022-12-17T18:07:23.829Z,100015.47
2022-12-17T18:09:41.135Z,100013.66
2022-12-17T18:12:26.549Z,100020.41
2022-12-17T18:17:40.532Z,100016.69
2022-12-17T18:20:09.883Z,100018.25
2022-12-17T18:22:37.570Z,100018.13
2022-12-17T18:25:05.453Z,100012.50
2022-12-17T18:27:32.565Z,100026.00
2022-12-17T18:29:59.577Z,100016.81
2022-12-17T18:32:26.558Z,100028.50
2022-12-17T18:34:53.627Z,100023.31
2022-12-17T18:37:20.603Z,100030.53
2022-12-17T18:39:48.861Z,100003.22
2022-12-17T18:42:34.311Z,100019.19
2022-12-17T18:45:01.397Z,100021.44
2022-12-17T18:47:30.433Z,100019.81
2022-12-17T18:49:57.597Z,100009.56
2022-12-17T18:52:25.005Z,100010.28
2022-12-17T18:54:52.160Z,99994.16
2022-12-17T18:57:19.404Z,99997.53
2022-12-17T18:59:46.405Z,99988.78
2022-12-17T19:02:14.181Z,99990.47
2022-12-17T19:04:41.825Z,99983.34
2022-12-17T19:07:09.150Z,99990.72
2022-12-17T19:09:36.681Z,99968.78
2022-12-17T19:12:06.146Z,99976.75
2022-12-17T19:14:34.320Z,99968.09
2022-12-17T19:17:01.881Z,99973.28
2022-12-17T19:19:28.935Z,99959.13
2022-12-17T19:21:56.313Z,99960.25
2022-12-17T19:24:23.874Z,99950.88
2022-12-17T19:26:51.597Z,99951.75
2022-12-17T19:29:21.004Z,99946.94
2022-12-17T19:31:48.301Z,99945.38
2022-12-17T19:34:17.899Z,99955.25
2022-12-17T19:36:45.796Z,99958.72
2022-12-17T19:39:15.318Z,99951.81
2022-12-17T19:41:42.605Z,99946.75
2022-12-17T19:44:13.156Z,99937.03
2022-12-17T19:46:40.861Z,99937.31
2022-12-17T19:49:08.659Z,99932.81
2022-12-17T19:51:38.882Z,99930.75
2022-12-17T19:54:08.812Z,99937.88
2022-12-17T19:56:36.156Z,99928.59
2022-12-17T19:59:07.462Z,99927.38
2022-12-17T20:01:38.288Z,99917.84
2022-12-17T20:04:06.177Z,99927.63
2022-12-17T20:06:35.186Z,99918.09
2022-12-17T20:09:04.597Z,99913.53
2022-12-17T20:11:34.818Z,99902.28
2022-12-17T20:14:07.774Z,99901.41
2022-12-17T20:16:38.208Z,99898.47
2022-12-17T20:19:06.827Z,99900.06
2022-12-17T20:21:33.873Z,99891.22
2022-12-17T20:24:00.967Z,99887.63
2022-12-17T20:26:28.001Z,99877.88
2022-12-17T20:28:55.229Z,99862.75
2022-12-17T20:31:22.369Z,99863.50
2022-12-17T20:33:49.300Z,99846.53
2022-12-17T20:36:18.213Z,99864.38
2022-12-17T20:38:45.793Z,99861.66
2022-12-17T20:41:21.993Z,99863.13
2022-12-17T20:43:49.720Z,99837.03
2022-12-17T20:46:18.855Z,99849.13
2022-12-17T20:48:46.424Z,99852.53
2022-12-17T20:51:17.490Z,99839.34
2022-12-17T20:53:45.715Z,99829.97
2022-12-17T20:56:15.343Z,99826.53
2022-12-17T20:58:42.873Z,99819.91
2022-12-17T21:01:19.914Z,99809.69
2022-12-17T21:03:47.711Z,99809.75
2022-12-17T21:06:38.420Z,99792.88
2022-12-17T21:09:06.186Z,99797.56
2022-12-17T21:11:35.918Z,99803.56
2022-12-17T21:14:05.481Z,99789.69
2022-12-17T21:16:32.736Z,99779.88
2022-12-17T21:19:01.022Z,99773.78
2022-12-17T21:21:30.428Z,99779.28
2022-12-17T21:23:58.532Z,99761.50
2022-12-17T21:26:29.436Z,99754.72
2022-12-17T21:28:59.654Z,99738.78
2022-12-17T21:31:41.080Z,99738.84
2022-12-17T21:34:11.960Z,99717.03
2022-12-17T21:36:39.021Z,99712.19
2022-12-17T21:39:09.050Z,99702.19
2022-12-17T21:41:40.316Z,99699.38
2022-12-17T21:44:12.941Z,99693.00
2022-12-17T21:46:40.913Z,99685.31
2022-12-17T21:49:07.898Z,99693.75
2022-12-17T21:51:35.463Z,99695.28
2022-12-17T21:54:08.238Z,99694.25
2022-12-17T21:56:36.270Z,99689.69
2022-12-17T21:59:03.422Z,99689.78
2022-12-17T22:01:33.266Z,99691.56
2022-12-17T22:04:03.143Z,99687.91
2022-12-17T22:06:36.129Z,99674.53
2022-12-17T22:09:09.464Z,99663.00
2022-12-17T22:11:49.541Z,99664.19
2022-12-17T22:14:20.798Z,99680.56
2022-12-17T22:16:49.672Z,99674.41
2022-12-17T22:19:21.808Z,99670.84
2022-12-17T22:21:51.479Z,99641.56
2022-12-17T22:24:24.957Z,99651.69
2022-12-17T22:26:56.213Z,99658.38
2022-12-17T22:29:41.762Z,99652.38
2022-12-17T22:32:29.019Z,99645.84
2022-12-17T22:36:12.351Z,99648.91
2022-12-17T22:41:51.402Z,99632.00
2022-12-17T22:44:34.338Z,99623.44
2022-12-17T22:44:39.383Z,99617.75
2022-12-17T22:46:19.635Z,99611.09
2022-12-17T22:48:47.212Z,99594.47
2022-12-17T22:51:25.101Z,99597.38
2022-12-17T22:54:02.755Z,99589.28
2022-12-17T22:56:50.989Z,99582.84
2022-12-17T22:59:18.864Z,99577.31
2022-12-17T23:01:46.234Z,99570.06
2022-12-17T23:04:15.882Z,99569.84
2022-12-17T23:06:47.500Z,99567.50
2022-12-17T23:09:19.468Z,99556.41
2022-12-17T23:11:48.088Z,99557.31
2022-12-17T23:14:15.256Z,99549.44
2022-12-17T23:16:43.355Z,99547.81
2022-12-17T23:19:10.448Z,99534.94
2022-12-17T23:21:37.742Z,99535.50
2022-12-17T23:24:05.543Z,99523.47
2022-12-17T23:26:35.188Z,99507.94
2022-12-17T23:29:05.334Z,99500.75
2022-12-17T23:31:37.967Z,99506.69
2022-12-17T23:34:05.812Z,99491.13
2022-12-17T23:36:33.724Z,99498.38
2022-12-17T23:39:00.711Z,99502.59
2022-12-17T23:41:30.224Z,99497.38
2022-12-17T23:43:58.556Z,99498.72
2022-12-17T23:46:28.206Z,99492.97
2022-12-17T23:48:55.502Z,99482.59
2022-12-17T23:51:24.179Z,99479.09
2022-12-17T23:53:51.116Z,99465.16
2022-12-17T23:56:23.679Z,99471.69
2022-12-17T23:58:59.464Z,99466.72
